• Join FlightAware (Why Join?)
  • Login
  • US Flag 
02:42AM EDT


 

Airport Tracker/Info


-or-


 

Live Flight TrackerFlight Track Log ✈ EZY4318 ✈ 25-Oct-2013 ✈ LFRB / BES - LFLL / LYS

Flight Track Log - Related Links

Times and Time Zones

All times are in EDT time to prevent confusion due to time zone crossing. See the EZY4318 flight status page for this flight to view local times or setup timezone preferences in your user account.

Time Position Orientation Groundspeed Altitude Reporting Facility
EDT Latitude Longitude Course Direction KTS MPH feet Rate Location/Type
10:01AM 48.2264 -3.4833 109° East  Level Estimated
10:02AM 48.1982 -3.3670 110° East  Level Estimated
10:03AM 48.1698 -3.2508 110° East  Level Estimated
10:04AM 48.1414 -3.1347 110° East  Level Estimated
10:05AM 48.1128 -3.0188 110° East  Level Estimated
10:06AM 48.0841 -2.9030 110° East  Level Estimated
10:07AM 48.0553 -2.7873 110° East  Level Estimated
10:08AM 48.0264 -2.6718 110° East  Level Estimated
10:09AM 47.9974 -2.5563 111° Southeast  Level Estimated
10:10AM 47.9682 -2.4411 111° Southeast  Level Estimated
10:11AM 47.9389 -2.3259 111° Southeast  Level Estimated
10:12AM 47.9096 -2.2109 111° Southeast  Level Estimated
10:13AM 47.8801 -2.0960 111° Southeast  Level Estimated
10:14AM 47.8505 -1.9812 111° Southeast  Level Estimated
10:15AM 47.8200 -1.8638 111° Southeast  Level Estimated
10:16AM 47.7895 -1.7465 111° Southeast  Level Estimated
10:17AM 47.7588 -1.6294 111° Southeast  Level Estimated
10:18AM 47.7280 -1.5124 111° Southeast  Level Estimated
10:19AM 47.6971 -1.3956 111° Southeast  Level Estimated
10:20AM 47.6660 -1.2789 112° Southeast  Level Estimated
10:21AM 47.6349 -1.1623 112° Southeast  Level Estimated
10:22AM 47.6036 -1.0459 112° Southeast  Level Estimated
10:23AM 47.5722 -0.9296 112° Southeast  Level Estimated
10:24AM 47.5407 -0.8134 112° Southeast  Level Estimated
10:25AM 47.5091 -0.6974 112° Southeast  Level Estimated
10:26AM 47.4773 -0.5816 112° Southeast  Level Estimated
10:27AM 47.4455 -0.4658 112° Southeast  Level Estimated
10:28AM 47.4135 -0.3502 112° Southeast  Level Estimated
10:29AM 47.3814 -0.2348 112° Southeast  Level Estimated
10:30AM 47.3492 -0.1195 112° Southeast  Level Estimated
10:31AM 47.3169 -0.0043 112° Southeast  Level Estimated
10:32AM 47.2720 0.1548 113° Southeast  Level Estimated
10:33AM 47.2268 0.3136 113° Southeast  Level Estimated
10:34AM 47.1815 0.4721 113° Southeast  Level Estimated
10:35AM 47.1359 0.6304 113° Southeast  Level Estimated
10:36AM 47.0902 0.7884 113° Southeast  Level Estimated
10:37AM 47.0442 0.9461 113° Southeast  Level Estimated
10:38AM 46.9980 1.1036 113° Southeast  Level Estimated
10:39AM 46.9515 1.2608 113° Southeast  Level Estimated
10:40AM 46.9049 1.4177 113° Southeast  Level Estimated
10:41AM 46.8580 1.5743 114° Southeast  Level Estimated
10:42AM 46.8110 1.7307 114° Southeast  Level Estimated
10:43AM 46.7637 1.8868 114° Southeast  Level Estimated
10:44AM 46.7162 2.0426 114° Southeast  Level Estimated
10:45AM 46.6685 2.1981 114° Southeast  Level Estimated
10:46AM 46.6206 2.3534 114° Southeast  Level Estimated
10:47AM 46.5724 2.5084 114° Southeast  Level Estimated
10:48AM 46.5241 2.6631 114° Southeast  Level Estimated
10:49AM 46.4756 2.8175 114° Southeast  Level Estimated
10:50AM 46.4268 2.9717 115° Southeast  Level Estimated
10:51AM 46.3779 3.1256 115° Southeast  Level Estimated
10:52AM 46.3287 3.2792 115° Southeast  Level Estimated
10:53AM 46.2793 3.4325 115° Southeast  Level Estimated
10:54AM 46.2417 3.5488 115° Southeast  Level Estimated
10:55AM 46.2039 3.6649 115° Southeast  Level Estimated
10:56AM 46.1661 3.7808 115° Southeast  Level Estimated
10:57AM 46.1281 3.8966 115° Southeast  Level Estimated
10:58AM 46.0900 4.0122 115° Southeast  Level Estimated
10:59AM 46.0518 4.1277 115° Southeast  Level Estimated
11:00AM 46.0135 4.2430 116° Southeast  Level Estimated
11:01AM 45.9750 4.3582 116° Southeast  Level Estimated
11:02AM 45.9364 4.4732 116° Southeast  Level Estimated
11:03AM 45.8978 4.5880 116° Southeast  Level Estimated
11:04AM 45.8590 4.7027 116° Southeast  Level Estimated
11:05AM 45.8201 4.8172 116° Southeast  Level Estimated
11:06AM 45.7810 4.9315 116° Southeast  Level Estimated
11:07AM 45.7419 5.0457 116° Southeast  Level Estimated
11:08AM 45.7264 5.0908 116° Southeast  Level Estimated
11:09AM 45.7264 5.0908 145° Southeast  Level Estimated
11:10AM 45.7264 5.0908 145° Southeast  Level Estimated
11:11AM 45.7264 5.0908 145° Southeast  Level Estimated
11:12AM 45.7264 5.0908 145° Southeast  Level Estimated
11:13AM 45.7264 5.0908 145° Southeast  Level Estimated
11:14AM 45.7264 5.0908 145° Southeast  Level Estimated
11:15AM 45.7264 5.0908 145° Southeast  Level Estimated
11:16AM 45.7264 5.0908 145° Southeast  Level Estimated
11:17AM 45.7264 5.0908 145° Southeast  Level Estimated
11:18AM 45.7264 5.0908 145° Southeast  Level Estimated
11:19AM 45.7264 5.0908 145° Southeast  Level Estimated
11:20AM 45.7264 5.0908 145° Southeast  Level Estimated
11:21AM 45.7264 5.0908 145° Southeast  Level Estimated
11:22AM 45.7264 5.0908 145° Southeast  Level Estimated
11:23AM 45.7264 5.0908 145° Southeast  Level Estimated
11:24AM 45.7264 5.0908 145° Southeast  Level Estimated
11:25AM 45.7264 5.0908 145° Southeast  Level Estimated